sensor_id;sensor_type;location;lat;lon;timestamp;P1;durP1;ratioP1;P2;durP2;ratioP2
51066;SDS011;37112;45.892;-123.962;2023-10-19T00:02:49;246.00;;;43.40;;
51066;SDS011;37112;45.892;-123.962;2023-10-19T00:05:02;189.80;;;34.30;;
51066;SDS011;37112;45.892;-123.962;2023-10-19T00:07:21;176.90;;;32.00;;
51066;SDS011;37112;45.892;-123.962;2023-10-19T00:13:59;162.20;;;30.60;;
51066;SDS011;37112;45.892;-123.962;2023-10-19T00:16:11;166.60;;;30.20;;
51066;SDS011;37112;45.892;-123.962;2023-10-19T00:18:29;149.90;;;28.10;;
51066;SDS011;37112;45.892;-123.962;2023-10-19T00:20:42;146.40;;;29.90;;
51066;SDS011;37112;45.892;-123.962;2023-10-19T00:22:59;152.50;;;30.10;;
51066;SDS011;37112;45.892;-123.962;2023-10-19T00:25:13;176.10;;;31.80;;
51066;SDS011;37112;45.892;-123.962;2023-10-19T00:27:30;166.90;;;31.10;;
51066;SDS011;37112;45.892;-123.962;2023-10-19T00:29:43;151.70;;;28.20;;
51066;SDS011;37112;45.892;-123.962;2023-10-19T00:32:02;111.90;;;25.10;;
51066;SDS011;37112;45.892;-123.962;2023-10-19T00:34:20;134.80;;;31.00;;
51066;SDS011;37112;45.892;-123.962;2023-10-19T00:36:34;133.10;;;30.30;;
51066;SDS011;37112;45.892;-123.962;2023-10-19T00:38:47;117.60;;;28.40;;
51066;SDS011;37112;45.892;-123.962;2023-10-19T00:41:02;138.20;;;28.50;;
51066;SDS011;37112;45.892;-123.962;2023-10-19T00:43:27;119.30;;;28.30;;
51066;SDS011;37112;45.892;-123.962;2023-10-19T00:45:42;135.90;;;27.90;;
51066;SDS011;37112;45.892;-123.962;2023-10-19T00:47:59;107.40;;;25.00;;
51066;SDS011;37112;45.892;-123.962;2023-10-19T00:50:16;105.70;;;21.80;;
51066;SDS011;37112;45.892;-123.962;2023-10-19T00:52:30;76.00;;;17.50;;
51066;SDS011;37112;45.892;-123.962;2023-10-19T00:54:51;69.50;;;15.90;;
51066;SDS011;37112;45.892;-123.962;2023-10-19T00:57:06;58.90;;;14.60;;
51066;SDS011;37112;45.892;-123.962;2023-10-19T00:59:20;48.30;;;13.60;;
51066;SDS011;37112;45.892;-123.962;2023-10-19T01:01:37;48.20;;;11.20;;
51066;SDS011;37112;45.892;-123.962;2023-10-19T01:03:55;38.60;;;10.70;;
51066;SDS011;37112;45.892;-123.962;2023-10-19T01:06:11;377.80;;;70.80;;
51066;SDS011;37112;45.892;-123.962;2023-10-19T01:08:26;345.80;;;64.10;;
51066;SDS011;37112;45.892;-123.962;2023-10-19T01:13:00;362.90;;;68.00;;
51066;SDS011;37112;45.892;-123.962;2023-10-19T01:15:14;422.20;;;83.10;;
51066;SDS011;37112;45.892;-123.962;2023-10-19T01:17:31;404.20;;;82.10;;
51066;SDS011;37112;45.892;-123.962;2023-10-19T01:19:46;424.40;;;87.50;;
51066;SDS011;37112;45.892;-123.962;2023-10-19T01:22:00;411.20;;;88.70;;
51066;SDS011;37112;45.892;-123.962;2023-10-19T01:24:14;365.00;;;72.50;;
51066;SDS011;37112;45.892;-123.962;2023-10-19T01:26:29;383.40;;;75.80;;
51066;SDS011;37112;45.892;-123.962;2023-10-19T01:28:45;358.20;;;72.90;;
51066;SDS011;37112;45.892;-123.962;2023-10-19T01:31:00;360.70;;;68.80;;
51066;SDS011;37112;45.892;-123.962;2023-10-19T01:33:14;338.00;;;69.80;;
51066;SDS011;37112;45.892;-123.962;2023-10-19T01:35:27;354.80;;;68.10;;
51066;SDS011;37112;45.892;-123.962;2023-10-19T01:38:00;330.80;;;63.80;;
51066;SDS011;37112;45.892;-123.962;2023-10-19T01:40:14;285.00;;;52.50;;
51066;SDS011;37112;45.892;-123.962;2023-10-19T01:42:28;207.70;;;44.60;;
51066;SDS011;37112;45.892;-123.962;2023-10-19T01:46:50;81.20;;;19.20;;
51066;SDS011;37112;45.892;-123.962;2023-10-19T01:49:03;68.80;;;20.40;;
51066;SDS011;37112;45.892;-123.962;2023-10-19T01:51:16;61.00;;;15.80;;
51066;SDS011;37112;45.892;-123.962;2023-10-19T01:53:31;51.40;;;16.10;;
51066;SDS011;37112;45.892;-123.962;2023-10-19T01:55:44;45.90;;;14.40;;
51066;SDS011;37112;45.892;-123.962;2023-10-19T01:58:05;52.40;;;18.90;;
51066;SDS011;37112;45.892;-123.962;2023-10-19T02:00:18;54.50;;;20.10;;
51066;SDS011;37112;45.892;-123.962;2023-10-19T02:02:31;41.70;;;19.90;;
51066;SDS011;37112;45.892;-123.962;2023-10-19T02:04:46;37.30;;;16.70;;
51066;SDS011;37112;45.892;-123.962;2023-10-19T02:07:00;37.80;;;13.70;;
51066;SDS011;37112;45.892;-123.962;2023-10-19T02:09:20;29.80;;;13.70;;
51066;SDS011;37112;45.892;-123.962;2023-10-19T02:11:34;30.50;;;11.50;;
51066;SDS011;37112;45.892;-123.962;2023-10-19T02:13:49;18.00;;;7.80;;
51066;SDS011;37112;45.892;-123.962;2023-10-19T02:16:03;21.80;;;6.60;;
51066;SDS011;37112;45.892;-123.962;2023-10-19T02:18:17;17.90;;;4.40;;
51066;SDS011;37112;45.892;-123.962;2023-10-19T02:20:33;18.40;;;6.40;;
51066;SDS011;37112;45.892;-123.962;2023-10-19T02:22:48;17.70;;;5.90;;
51066;SDS011;37112;45.892;-123.962;2023-10-19T02:25:02;17.80;;;5.40;;
51066;SDS011;37112;45.892;-123.962;2023-10-19T02:27:21;13.40;;;5.50;;
51066;SDS011;37112;45.892;-123.962;2023-10-19T02:29:39;16.90;;;5.40;;
51066;SDS011;37112;45.892;-123.962;2023-10-19T02:31:54;17.10;;;4.90;;
51066;SDS011;37112;45.892;-123.962;2023-10-19T02:34:11;11.60;;;3.70;;
51066;SDS011;37112;45.892;-123.962;2023-10-19T02:36:24;21.10;;;4.50;;
51066;SDS011;37112;45.892;-123.962;2023-10-19T02:38:38;9.80;;;2.70;;
51066;SDS011;37112;45.892;-123.962;2023-10-19T02:40:56;16.00;;;4.90;;
51066;SDS011;37112;45.892;-123.962;2023-10-19T02:43:10;8.10;;;2.30;;
51066;SDS011;37112;45.892;-123.962;2023-10-19T02:47:38;11.10;;;3.60;;
51066;SDS011;37112;45.892;-123.962;2023-10-19T02:49:51;8.80;;;3.00;;
51066;SDS011;37112;45.892;-123.962;2023-10-19T02:52:05;9.20;;;2.90;;
51066;SDS011;37112;45.892;-123.962;2023-10-19T02:54:21;18.70;;;5.20;;
51066;SDS011;37112;45.892;-123.962;2023-10-19T02:56:35;14.60;;;6.40;;
51066;SDS011;37112;45.892;-123.962;2023-10-19T02:58:51;16.00;;;4.90;;
51066;SDS011;37112;45.892;-123.962;2023-10-19T03:01:17;19.40;;;7.20;;
51066;SDS011;37112;45.892;-123.962;2023-10-19T03:03:36;14.60;;;5.20;;
51066;SDS011;37112;45.892;-123.962;2023-10-19T03:05:51;15.10;;;4.60;;
51066;SDS011;37112;45.892;-123.962;2023-10-19T03:10:15;24.80;;;5.70;;
51066;SDS011;37112;45.892;-123.962;2023-10-19T03:12:42;19.40;;;5.80;;
51066;SDS011;37112;45.892;-123.962;2023-10-19T03:14:55;13.90;;;5.30;;
51066;SDS011;37112;45.892;-123.962;2023-10-19T03:17:10;8.10;;;4.10;;
51066;SDS011;37112;45.892;-123.962;2023-10-19T03:19:23;13.70;;;5.30;;
51066;SDS011;37112;45.892;-123.962;2023-10-19T03:21:36;15.80;;;5.60;;
51066;SDS011;37112;45.892;-123.962;2023-10-19T03:23:51;15.90;;;4.90;;
51066;SDS011;37112;45.892;-123.962;2023-10-19T03:26:04;12.90;;;3.40;;
51066;SDS011;37112;45.892;-123.962;2023-10-19T03:28:33;11.50;;;3.10;;
51066;SDS011;37112;45.892;-123.962;2023-10-19T03:30:45;11.00;;;3.00;;
51066;SDS011;37112;45.892;-123.962;2023-10-19T03:32:58;10.10;;;2.60;;
51066;SDS011;37112;45.892;-123.962;2023-10-19T03:35:12;11.50;;;3.70;;
51066;SDS011;37112;45.892;-123.962;2023-10-19T03:37:28;9.80;;;2.70;;
51066;SDS011;37112;45.892;-123.962;2023-10-19T03:39:42;12.00;;;2.70;;
51066;SDS011;37112;45.892;-123.962;2023-10-19T03:41:55;19.40;;;4.00;;
51066;SDS011;37112;45.892;-123.962;2023-10-19T03:44:09;10.00;;;2.80;;
51066;SDS011;37112;45.892;-123.962;2023-10-19T03:46:26;15.20;;;3.10;;
51066;SDS011;37112;45.892;-123.962;2023-10-19T03:48:39;16.20;;;3.20;;
51066;SDS011;37112;45.892;-123.962;2023-10-19T03:50:56;13.20;;;2.80;;
51066;SDS011;37112;45.892;-123.962;2023-10-19T03:53:10;11.60;;;2.90;;
51066;SDS011;37112;45.892;-123.962;2023-10-19T03:55:23;10.00;;;3.00;;
51066;SDS011;37112;45.892;-123.962;2023-10-19T03:57:37;12.10;;;3.10;;
51066;SDS011;37112;45.892;-123.962;2023-10-19T03:59:54;12.80;;;3.90;;
51066;SDS011;37112;45.892;-123.962;2023-10-19T04:02:07;15.60;;;5.30;;
51066;SDS011;37112;45.892;-123.962;2023-10-19T04:04:21;13.70;;;5.30;;
51066;SDS011;37112;45.892;-123.962;2023-10-19T04:06:37;9.70;;;4.30;;
51066;SDS011;37112;45.892;-123.962;2023-10-19T04:08:54;12.60;;;3.70;;
51066;SDS011;37112;45.892;-123.962;2023-10-19T04:13:28;11.20;;;2.90;;
51066;SDS011;37112;45.892;-123.962;2023-10-19T04:17:52;12.50;;;2.80;;
51066;SDS011;37112;45.892;-123.962;2023-10-19T04:20:08;7.10;;;3.00;;
51066;SDS011;37112;45.892;-123.962;2023-10-19T04:22:36;10.10;;;2.80;;
51066;SDS011;37112;45.892;-123.962;2023-10-19T04:27:00;11.30;;;3.60;;
51066;SDS011;37112;45.892;-123.962;2023-10-19T04:29:14;9.50;;;3.20;;
51066;SDS011;37112;45.892;-123.962;2023-10-19T04:31:35;14.30;;;3.80;;
51066;SDS011;37112;45.892;-123.962;2023-10-19T04:33:57;15.10;;;3.10;;
51066;SDS011;37112;45.892;-123.962;2023-10-19T04:36:16;12.20;;;2.50;;
51066;SDS011;37112;45.892;-123.962;2023-10-19T04:38:30;6.80;;;2.70;;
51066;SDS011;37112;45.892;-123.962;2023-10-19T04:40:46;11.10;;;2.60;;
51066;SDS011;37112;45.892;-123.962;2023-10-19T04:42:58;8.70;;;2.60;;
51066;SDS011;37112;45.892;-123.962;2023-10-19T04:45:12;9.50;;;2.50;;
51066;SDS011;37112;45.892;-123.962;2023-10-19T04:47:25;11.20;;;2.80;;
51066;SDS011;37112;45.892;-123.962;2023-10-19T04:49:38;12.00;;;2.50;;
51066;SDS011;37112;45.892;-123.962;2023-10-19T04:51:51;11.10;;;2.30;;
51066;SDS011;37112;45.892;-123.962;2023-10-19T04:56:16;5.10;;;2.30;;
51066;SDS011;37112;45.892;-123.962;2023-10-19T05:00:38;5.60;;;2.20;;
51066;SDS011;37112;45.892;-123.962;2023-10-19T05:05:01;7.30;;;2.10;;
51066;SDS011;37112;45.892;-123.962;2023-10-19T05:07:14;19.10;;;2.60;;
51066;SDS011;37112;45.892;-123.962;2023-10-19T05:09:27;14.10;;;2.80;;
51066;SDS011;37112;45.892;-123.962;2023-10-19T05:13:49;4.80;;;1.80;;
51066;SDS011;37112;45.892;-123.962;2023-10-19T05:16:02;6.70;;;2.30;;
51066;SDS011;37112;45.892;-123.962;2023-10-19T05:18:15;7.40;;;2.20;;
51066;SDS011;37112;45.892;-123.962;2023-10-19T05:22:38;14.70;;;2.40;;
51066;SDS011;37112;45.892;-123.962;2023-10-19T05:27:00;6.30;;;2.30;;
51066;SDS011;37112;45.892;-123.962;2023-10-19T05:29:16;9.10;;;2.00;;
51066;SDS011;37112;45.892;-123.962;2023-10-19T05:31:29;16.50;;;2.90;;
51066;SDS011;37112;45.892;-123.962;2023-10-19T05:33:42;6.70;;;1.90;;
51066;SDS011;37112;45.892;-123.962;2023-10-19T05:35:56;7.50;;;2.40;;
51066;SDS011;37112;45.892;-123.962;2023-10-19T05:38:08;7.00;;;2.10;;
51066;SDS011;37112;45.892;-123.962;2023-10-19T05:40:22;5.90;;;1.30;;
51066;SDS011;37112;45.892;-123.962;2023-10-19T05:42:37;6.20;;;1.40;;
51066;SDS011;37112;45.892;-123.962;2023-10-19T05:44:50;8.20;;;2.10;;
51066;SDS011;37112;45.892;-123.962;2023-10-19T05:47:03;9.00;;;2.10;;
51066;SDS011;37112;45.892;-123.962;2023-10-19T05:49:15;13.20;;;2.70;;
51066;SDS011;37112;45.892;-123.962;2023-10-19T05:51:28;4.50;;;1.70;;
51066;SDS011;37112;45.892;-123.962;2023-10-19T05:53:41;9.60;;;2.50;;
51066;SDS011;37112;45.892;-123.962;2023-10-19T05:58:03;17.50;;;2.50;;
51066;SDS011;37112;45.892;-123.962;2023-10-19T06:00:16;8.40;;;2.00;;
51066;SDS011;37112;45.892;-123.962;2023-10-19T06:02:33;11.50;;;2.10;;
51066;SDS011;37112;45.892;-123.962;2023-10-19T06:04:45;12.10;;;2.00;;
51066;SDS011;37112;45.892;-123.962;2023-10-19T06:09:08;6.10;;;1.50;;
51066;SDS011;37112;45.892;-123.962;2023-10-19T06:11:23;8.40;;;2.00;;
51066;SDS011;37112;45.892;-123.962;2023-10-19T06:13:39;7.00;;;1.40;;
51066;SDS011;37112;45.892;-123.962;2023-10-19T06:15:52;7.90;;;1.20;;
51066;SDS011;37112;45.892;-123.962;2023-10-19T06:18:05;11.00;;;2.00;;
51066;SDS011;37112;45.892;-123.962;2023-10-19T06:20:18;6.50;;;1.40;;
51066;SDS011;37112;45.892;-123.962;2023-10-19T06:22:34;5.60;;;1.40;;
51066;SDS011;37112;45.892;-123.962;2023-10-19T06:24:46;9.40;;;2.30;;
51066;SDS011;37112;45.892;-123.962;2023-10-19T06:29:09;5.90;;;1.20;;
51066;SDS011;37112;45.892;-123.962;2023-10-19T06:31:21;6.60;;;2.00;;
51066;SDS011;37112;45.892;-123.962;2023-10-19T06:33:36;4.70;;;1.70;;
51066;SDS011;37112;45.892;-123.962;2023-10-19T06:35:49;8.00;;;1.50;;
51066;SDS011;37112;45.892;-123.962;2023-10-19T06:40:12;5.30;;;1.40;;
51066;SDS011;37112;45.892;-123.962;2023-10-19T06:42:26;11.50;;;2.50;;
51066;SDS011;37112;45.892;-123.962;2023-10-19T06:44:38;7.30;;;2.70;;
51066;SDS011;37112;45.892;-123.962;2023-10-19T06:46:53;7.30;;;1.50;;
51066;SDS011;37112;45.892;-123.962;2023-10-19T06:49:05;4.70;;;1.40;;
51066;SDS011;37112;45.892;-123.962;2023-10-19T06:53:28;6.70;;;1.50;;
51066;SDS011;37112;45.892;-123.962;2023-10-19T06:55:40;5.10;;;1.50;;
51066;SDS011;37112;45.892;-123.962;2023-10-19T06:57:53;7.10;;;1.40;;
51066;SDS011;37112;45.892;-123.962;2023-10-19T07:00:06;11.60;;;3.00;;
51066;SDS011;37112;45.892;-123.962;2023-10-19T07:02:21;8.10;;;1.20;;
51066;SDS011;37112;45.892;-123.962;2023-10-19T07:06:43;5.00;;;1.70;;
51066;SDS011;37112;45.892;-123.962;2023-10-19T07:08:58;12.50;;;1.80;;
51066;SDS011;37112;45.892;-123.962;2023-10-19T07:11:11;7.00;;;1.60;;
51066;SDS011;37112;45.892;-123.962;2023-10-19T07:13:25;9.80;;;1.30;;
51066;SDS011;37112;45.892;-123.962;2023-10-19T07:15:40;6.60;;;1.70;;
51066;SDS011;37112;45.892;-123.962;2023-10-19T07:17:53;6.00;;;1.50;;
51066;SDS011;37112;45.892;-123.962;2023-10-19T07:20:07;7.00;;;1.30;;
51066;SDS011;37112;45.892;-123.962;2023-10-19T07:22:32;6.70;;;1.40;;
51066;SDS011;37112;45.892;-123.962;2023-10-19T07:24:45;7.10;;;1.80;;
51066;SDS011;37112;45.892;-123.962;2023-10-19T07:26:58;5.70;;;1.70;;
51066;SDS011;37112;45.892;-123.962;2023-10-19T07:29:14;5.40;;;1.40;;
51066;SDS011;37112;45.892;-123.962;2023-10-19T07:31:27;6.10;;;1.10;;
51066;SDS011;37112;45.892;-123.962;2023-10-19T10:33:41;6.10;;;1.20;;
51066;SDS011;37112;45.892;-123.962;2023-10-19T10:35:56;3.50;;;0.80;;
51066;SDS011;37112;45.892;-123.962;2023-10-19T10:38:07;7.30;;;1.00;;
51066;SDS011;37112;45.892;-123.962;2023-10-19T10:40:18;3.70;;;0.80;;
51066;SDS011;37112;45.892;-123.962;2023-10-19T10:42:29;2.20;;;0.80;;
51066;SDS011;37112;45.892;-123.962;2023-10-19T10:44:40;3.40;;;1.10;;
51066;SDS011;37112;45.892;-123.962;2023-10-19T10:46:50;3.50;;;0.90;;
51066;SDS011;37112;45.892;-123.962;2023-10-19T10:49:00;4.30;;;0.70;;
51066;SDS011;37112;45.892;-123.962;2023-10-19T10:51:22;3.70;;;1.10;;
51066;SDS011;37112;45.892;-123.962;2023-10-19T10:53:37;5.70;;;1.00;;
51066;SDS011;37112;45.892;-123.962;2023-10-19T10:55:50;6.50;;;0.70;;
51066;SDS011;37112;45.892;-123.962;2023-10-19T10:58:00;4.60;;;1.00;;
51066;SDS011;37112;45.892;-123.962;2023-10-19T11:00:11;4.00;;;1.30;;
51066;SDS011;37112;45.892;-123.962;2023-10-19T11:02:22;2.40;;;0.80;;
51066;SDS011;37112;45.892;-123.962;2023-10-19T11:04:32;11.50;;;1.50;;
51066;SDS011;37112;45.892;-123.962;2023-10-19T11:06:50;3.70;;;0.60;;
51066;SDS011;37112;45.892;-123.962;2023-10-19T11:09:10;4.50;;;1.00;;
51066;SDS011;37112;45.892;-123.962;2023-10-19T11:11:24;4.20;;;0.80;;
51066;SDS011;37112;45.892;-123.962;2023-10-19T11:13:33;4.00;;;0.80;;
51066;SDS011;37112;45.892;-123.962;2023-10-19T11:15:48;5.20;;;1.00;;
51066;SDS011;37112;45.892;-123.962;2023-10-19T11:18:03;4.30;;;0.90;;
51066;SDS011;37112;45.892;-123.962;2023-10-19T11:20:22;5.40;;;0.80;;
51066;SDS011;37112;45.892;-123.962;2023-10-19T11:22:33;2.60;;;1.00;;
51066;SDS011;37112;45.892;-123.962;2023-10-19T11:24:58;6.80;;;0.90;;
51066;SDS011;37112;45.892;-123.962;2023-10-19T11:27:27;2.70;;;0.80;;
51066;SDS011;37112;45.892;-123.962;2023-10-19T11:29:36;3.40;;;0.70;;
51066;SDS011;37112;45.892;-123.962;2023-10-19T11:31:57;1.80;;;0.60;;
51066;SDS011;37112;45.892;-123.962;2023-10-19T11:34:07;2.40;;;0.80;;
51066;SDS011;37112;45.892;-123.962;2023-10-19T11:36:24;4.70;;;1.00;;
51066;SDS011;37112;45.892;-123.962;2023-10-19T11:38:33;5.60;;;0.70;;
51066;SDS011;37112;45.892;-123.962;2023-10-19T11:40:44;2.30;;;1.00;;
51066;SDS011;37112;45.892;-123.962;2023-10-19T11:42:54;10.80;;;0.90;;
51066;SDS011;37112;45.892;-123.962;2023-10-19T11:45:06;1.00;;;0.90;;
51066;SDS011;37112;45.892;-123.962;2023-10-19T11:47:19;3.10;;;0.80;;
51066;SDS011;37112;45.892;-123.962;2023-10-19T11:49:29;5.90;;;2.00;;
51066;SDS011;37112;45.892;-123.962;2023-10-19T11:51:38;5.60;;;1.50;;
51066;SDS011;37112;45.892;-123.962;2023-10-19T11:53:49;8.70;;;1.90;;
51066;SDS011;37112;45.892;-123.962;2023-10-19T11:55:58;5.30;;;1.40;;
51066;SDS011;37112;45.892;-123.962;2023-10-19T11:58:11;15.90;;;1.80;;
51066;SDS011;37112;45.892;-123.962;2023-10-19T12:00:21;6.10;;;1.80;;
51066;SDS011;37112;45.892;-123.962;2023-10-19T12:02:39;9.60;;;1.20;;
51066;SDS011;37112;45.892;-123.962;2023-10-19T12:04:49;9.20;;;2.00;;
51066;SDS011;37112;45.892;-123.962;2023-10-19T12:06:58;6.50;;;1.60;;
51066;SDS011;37112;45.892;-123.962;2023-10-19T12:09:09;3.00;;;0.80;;
51066;SDS011;37112;45.892;-123.962;2023-10-19T12:11:21;4.40;;;0.80;;
51066;SDS011;37112;45.892;-123.962;2023-10-19T12:13:30;10.40;;;1.20;;
51066;SDS011;37112;45.892;-123.962;2023-10-19T12:15:40;4.70;;;0.70;;
51066;SDS011;37112;45.892;-123.962;2023-10-19T12:17:57;1.90;;;0.70;;
51066;SDS011;37112;45.892;-123.962;2023-10-19T12:20:08;2.60;;;0.80;;
51066;SDS011;37112;45.892;-123.962;2023-10-19T12:24:27;1.80;;;0.70;;
51066;SDS011;37112;45.892;-123.962;2023-10-19T12:26:36;1.50;;;0.60;;
51066;SDS011;37112;45.892;-123.962;2023-10-19T12:28:47;4.10;;;1.10;;
51066;SDS011;37112;45.892;-123.962;2023-10-19T12:30:57;2.30;;;0.60;;
51066;SDS011;37112;45.892;-123.962;2023-10-19T12:33:06;3.50;;;0.60;;
51066;SDS011;37112;45.892;-123.962;2023-10-19T12:35:20;4.50;;;0.70;;
51066;SDS011;37112;45.892;-123.962;2023-10-19T12:37:42;15.80;;;2.50;;
51066;SDS011;37112;45.892;-123.962;2023-10-19T12:39:57;3.40;;;1.20;;
51066;SDS011;37112;45.892;-123.962;2023-10-19T12:42:11;1.70;;;0.40;;
51066;SDS011;37112;45.892;-123.962;2023-10-19T12:44:21;2.60;;;0.90;;
51066;SDS011;37112;45.892;-123.962;2023-10-19T12:46:30;3.50;;;0.70;;
51066;SDS011;37112;45.892;-123.962;2023-10-19T12:48:43;1.90;;;0.50;;
51066;SDS011;37112;45.892;-123.962;2023-10-19T12:50:53;2.40;;;0.50;;
51066;SDS011;37112;45.892;-123.962;2023-10-19T12:53:03;4.50;;;0.70;;
51066;SDS011;37112;45.892;-123.962;2023-10-19T12:55:13;8.80;;;0.80;;
51066;SDS011;37112;45.892;-123.962;2023-10-19T12:57:23;9.00;;;0.60;;
51066;SDS011;37112;45.892;-123.962;2023-10-19T12:59:32;11.20;;;1.10;;
51066;SDS011;37112;45.892;-123.962;2023-10-19T13:01:44;6.40;;;0.70;;
51066;SDS011;37112;45.892;-123.962;2023-10-19T13:03:59;5.30;;;1.30;;
51066;SDS011;37112;45.892;-123.962;2023-10-19T13:08:35;4.40;;;0.70;;
51066;SDS011;37112;45.892;-123.962;2023-10-19T13:10:47;3.50;;;0.90;;
51066;SDS011;37112;45.892;-123.962;2023-10-19T13:12:57;10.00;;;1.80;;
51066;SDS011;37112;45.892;-123.962;2023-10-19T13:15:10;6.30;;;1.20;;
51066;SDS011;37112;45.892;-123.962;2023-10-19T13:17:20;6.80;;;0.90;;
51066;SDS011;37112;45.892;-123.962;2023-10-19T13:19:31;5.40;;;1.10;;
51066;SDS011;37112;45.892;-123.962;2023-10-19T13:21:43;3.70;;;1.00;;
51066;SDS011;37112;45.892;-123.962;2023-10-19T13:23:52;3.40;;;1.00;;
51066;SDS011;37112;45.892;-123.962;2023-10-19T13:26:01;3.50;;;0.80;;
51066;SDS011;37112;45.892;-123.962;2023-10-19T13:28:22;6.70;;;1.50;;
51066;SDS011;37112;45.892;-123.962;2023-10-19T13:30:33;1.20;;;0.70;;
51066;SDS011;37112;45.892;-123.962;2023-10-19T13:32:44;8.90;;;1.30;;
51066;SDS011;37112;45.892;-123.962;2023-10-19T13:34:55;11.90;;;2.70;;
51066;SDS011;37112;45.892;-123.962;2023-10-19T13:37:04;4.80;;;1.10;;
51066;SDS011;37112;45.892;-123.962;2023-10-19T13:39:14;3.90;;;1.20;;
51066;SDS011;37112;45.892;-123.962;2023-10-19T13:41:24;10.10;;;1.10;;
51066;SDS011;37112;45.892;-123.962;2023-10-19T13:43:34;10.50;;;1.90;;
51066;SDS011;37112;45.892;-123.962;2023-10-19T13:45:44;4.20;;;1.40;;
51066;SDS011;37112;45.892;-123.962;2023-10-19T13:47:54;3.90;;;1.60;;
51066;SDS011;37112;45.892;-123.962;2023-10-19T13:50:05;9.10;;;1.50;;
51066;SDS011;37112;45.892;-123.962;2023-10-19T13:54:25;8.90;;;1.60;;
51066;SDS011;37112;45.892;-123.962;2023-10-19T13:56:34;7.40;;;1.90;;
51066;SDS011;37112;45.892;-123.962;2023-10-19T13:58:44;7.00;;;1.50;;
51066;SDS011;37112;45.892;-123.962;2023-10-19T14:00:54;3.50;;;1.60;;
51066;SDS011;37112;45.892;-123.962;2023-10-19T14:03:04;5.00;;;1.90;;
51066;SDS011;37112;45.892;-123.962;2023-10-19T14:05:15;2.70;;;1.20;;
51066;SDS011;37112;45.892;-123.962;2023-10-19T14:07:25;6.80;;;1.40;;
51066;SDS011;37112;45.892;-123.962;2023-10-19T14:11:45;9.80;;;1.50;;
51066;SDS011;37112;45.892;-123.962;2023-10-19T14:13:55;5.60;;;0.80;;
51066;SDS011;37112;45.892;-123.962;2023-10-19T14:16:09;4.20;;;1.30;;
51066;SDS011;37112;45.892;-123.962;2023-10-19T14:18:18;5.30;;;1.30;;
51066;SDS011;37112;45.892;-123.962;2023-10-19T14:20:29;4.10;;;1.40;;
51066;SDS011;37112;45.892;-123.962;2023-10-19T14:22:41;5.00;;;1.90;;
51066;SDS011;37112;45.892;-123.962;2023-10-19T14:24:52;7.50;;;1.60;;
51066;SDS011;37112;45.892;-123.962;2023-10-19T14:27:01;6.10;;;1.70;;
51066;SDS011;37112;45.892;-123.962;2023-10-19T14:29:11;4.70;;;1.70;;
51066;SDS011;37112;45.892;-123.962;2023-10-19T14:31:21;4.70;;;1.70;;
51066;SDS011;37112;45.892;-123.962;2023-10-19T14:33:31;4.00;;;1.40;;
51066;SDS011;37112;45.892;-123.962;2023-10-19T14:35:41;46.10;;;9.00;;
51066;SDS011;37112;45.892;-123.962;2023-10-19T14:37:51;57.80;;;8.10;;
51066;SDS011;37112;45.892;-123.962;2023-10-19T14:40:02;31.80;;;6.50;;
51066;SDS011;37112;45.892;-123.962;2023-10-19T14:42:15;24.40;;;5.60;;
51066;SDS011;37112;45.892;-123.962;2023-10-19T14:44:25;36.20;;;5.40;;
51066;SDS011;37112;45.892;-123.962;2023-10-19T14:46:34;19.60;;;2.90;;
51066;SDS011;37112;45.892;-123.962;2023-10-19T14:48:44;21.10;;;3.80;;
51066;SDS011;37112;45.892;-123.962;2023-10-19T14:50:53;15.50;;;3.60;;
51066;SDS011;37112;45.892;-123.962;2023-10-19T14:53:05;10.50;;;2.20;;
51066;SDS011;37112;45.892;-123.962;2023-10-19T14:55:15;12.90;;;2.30;;
51066;SDS011;37112;45.892;-123.962;2023-10-19T14:57:25;5.60;;;1.70;;
51066;SDS011;37112;45.892;-123.962;2023-10-19T14:59:34;7.50;;;2.10;;
51066;SDS011;37112;45.892;-123.962;2023-10-19T15:01:44;14.40;;;3.30;;
51066;SDS011;37112;45.892;-123.962;2023-10-19T15:03:53;23.20;;;6.30;;
51066;SDS011;37112;45.892;-123.962;2023-10-19T15:06:04;45.20;;;9.20;;
51066;SDS011;37112;45.892;-123.962;2023-10-19T15:08:13;24.30;;;5.90;;
51066;SDS011;37112;45.892;-123.962;2023-10-19T15:10:24;43.00;;;7.40;;
51066;SDS011;37112;45.892;-123.962;2023-10-19T15:12:34;63.70;;;10.90;;
51066;SDS011;37112;45.892;-123.962;2023-10-19T15:14:43;59.30;;;11.00;;
51066;SDS011;37112;45.892;-123.962;2023-10-19T15:16:53;78.40;;;15.70;;
51066;SDS011;37112;45.892;-123.962;2023-10-19T15:19:02;91.40;;;19.90;;
51066;SDS011;37112;45.892;-123.962;2023-10-19T15:21:17;115.20;;;22.00;;
51066;SDS011;37112;45.892;-123.962;2023-10-19T15:23:26;73.50;;;15.60;;
51066;SDS011;37112;45.892;-123.962;2023-10-19T15:25:37;68.90;;;13.50;;
51066;SDS011;37112;45.892;-123.962;2023-10-19T15:27:47;50.90;;;11.60;;
51066;SDS011;37112;45.892;-123.962;2023-10-19T15:29:58;59.60;;;11.70;;
51066;SDS011;37112;45.892;-123.962;2023-10-19T15:32:07;55.20;;;10.70;;
51066;SDS011;37112;45.892;-123.962;2023-10-19T15:34:17;34.20;;;6.90;;
51066;SDS011;37112;45.892;-123.962;2023-10-19T15:36:27;47.60;;;8.50;;
51066;SDS011;37112;45.892;-123.962;2023-10-19T15:38:36;30.10;;;6.70;;
51066;SDS011;37112;45.892;-123.962;2023-10-19T15:40:46;35.10;;;7.60;;
51066;SDS011;37112;45.892;-123.962;2023-10-19T15:42:56;33.40;;;5.70;;
51066;SDS011;37112;45.892;-123.962;2023-10-19T15:45:07;28.10;;;5.50;;
51066;SDS011;37112;45.892;-123.962;2023-10-19T15:47:18;23.30;;;5.20;;
51066;SDS011;37112;45.892;-123.962;2023-10-19T15:49:29;14.60;;;3.60;;
51066;SDS011;37112;45.892;-123.962;2023-10-19T15:51:38;9.60;;;2.20;;
51066;SDS011;37112;45.892;-123.962;2023-10-19T15:53:48;5.80;;;1.90;;
51066;SDS011;37112;45.892;-123.962;2023-10-19T15:55:57;13.10;;;2.30;;
51066;SDS011;37112;45.892;-123.962;2023-10-19T15:58:10;8.30;;;1.90;;
51066;SDS011;37112;45.892;-123.962;2023-10-19T16:00:19;7.60;;;1.60;;
51066;SDS011;37112;45.892;-123.962;2023-10-19T16:02:29;11.40;;;1.70;;
51066;SDS011;37112;45.892;-123.962;2023-10-19T16:04:39;9.80;;;2.30;;
51066;SDS011;37112;45.892;-123.962;2023-10-19T16:06:51;13.40;;;2.40;;
51066;SDS011;37112;45.892;-123.962;2023-10-19T16:09:00;6.90;;;2.00;;
51066;SDS011;37112;45.892;-123.962;2023-10-19T16:11:10;8.50;;;2.20;;
51066;SDS011;37112;45.892;-123.962;2023-10-19T16:13:20;4.30;;;1.80;;
51066;SDS011;37112;45.892;-123.962;2023-10-19T16:15:30;5.60;;;2.20;;
51066;SDS011;37112;45.892;-123.962;2023-10-19T16:17:39;6.90;;;3.00;;
51066;SDS011;37112;45.892;-123.962;2023-10-19T16:19:51;9.00;;;3.50;;
51066;SDS011;37112;45.892;-123.962;2023-10-19T16:22:00;10.40;;;3.50;;
51066;SDS011;37112;45.892;-123.962;2023-10-19T16:24:10;8.00;;;3.00;;
51066;SDS011;37112;45.892;-123.962;2023-10-19T16:26:20;7.30;;;4.30;;
51066;SDS011;37112;45.892;-123.962;2023-10-19T16:28:30;6.80;;;4.00;;
51066;SDS011;37112;45.892;-123.962;2023-10-19T16:30:39;10.40;;;3.50;;
51066;SDS011;37112;45.892;-123.962;2023-10-19T16:32:50;17.80;;;3.50;;
51066;SDS011;37112;45.892;-123.962;2023-10-19T16:35:00;7.90;;;3.30;;